Terminal Aerodrome Forecast
Issued by NWS Cleveland, OH

Home | Current Version | Previous Version | Graphics & Text | Print | Product List | Glossary On
Versions: 1 2 3 4 5 6 7 8 9 10 11 12 13 14 15 16 17 18
000
FTUS41 KCLE 012130 AAB
TAFTOL
TAF AMD
KTOL 012130Z 0122/0218 04006KT P6SM OVC012
     FM020300 06008KT 2SM -RA BR OVC004
     FM020900 02008KT 2SM BR OVC004
     FM021500 04008KT P6SM OVC006=

USA.gov is the U.S. government's official web portal to all federal, state and local government web resources and services.